Wetterstation Vordersexau
Wetterdaten: Woche 18.03.13 - 24.03.13 (KW12)
Datum Zeit Temp. A. Feuchte A. Luftdruck Regen Wind Richtung Taupunkt Windchill Windben
18.03.2013 00:00 4,9 C 84 % 996,4 hPa 0,5 l/m 0,0 km/h SW 2,4 C 4,9 C 0,0 km/h
18.03.2013 01:00 4,7 C 83 % 996,7 hPa 1,6 l/m 0,0 km/h W 2,1 C 4,7 C 0,0 km/h
18.03.2013 02:00 4,4 C 83 % 996,3 hPa 0,0 l/m 0,0 km/h SW 1,8 C 4,4 C 0,0 km/h
18.03.2013 03:00 4,2 C 82 % 996,1 hPa 0,5 l/m 0,0 km/h O-SO 1,4 C 4,2 C 0,0 km/h
18.03.2013 04:00 3,9 C 81 % 995,0 hPa 0,0 l/m 0,0 km/h W-SW 0,9 C 3,9 C 0,0 km/h
18.03.2013 05:00 3,7 C 81 % 994,4 hPa 0,0 l/m 14,9 km/h N-NO 0,7 C -2,4 C 8,3 km/h
18.03.2013 06:00 3,4 C 81 % 994,3 hPa 0,0 l/m 0,0 km/h S-SW 0,5 C 3,4 C 0,0 km/h
18.03.2013 07:00 3,5 C 81 % 994,3 hPa 0,5 l/m 0,0 km/h S 0,6 C 3,5 C 0,0 km/h
18.03.2013 08:00 4,0 C 80 % 993,6 hPa 0,0 l/m 0,0 km/h NO 0,9 C 4,0 C 0,0 km/h
18.03.2013 09:00 4,6 C 82 % 993,1 hPa 0,0 l/m 0,0 km/h N 1,8 C 4,6 C 0,0 km/h
18.03.2013 10:00 5,4 C 85 % 992,9 hPa 0,0 l/m 1,9 km/h N-NO 3,1 C 5,4 C 1,1 km/h
18.03.2013 11:00 5,4 C 85 % 992,6 hPa 0,5 l/m 0,0 km/h N 3,1 C 5,4 C 0,0 km/h
18.03.2013 12:00 4,9 C 85 % 992,6 hPa 1,0 l/m 5,8 km/h N 2,6 C 4,9 C 3,2 km/h
18.03.2013 13:00 5,1 C 85 % 992,1 hPa 0,5 l/m 0,0 km/h N-NW 2,8 C 5,1 C 0,0 km/h
18.03.2013 14:00 6,1 C 84 % 991,8 hPa 0,5 l/m 0,0 km/h S-SW 3,6 C 6,1 C 0,0 km/h
18.03.2013 15:00 6,3 C 84 % 991,6 hPa 0,5 l/m 0,0 km/h W-NW 3,8 C 6,3 C 0,0 km/h
18.03.2013 16:00 7,0 C 82 % 991,4 hPa 0,0 l/m 1,9 km/h W-SW 4,1 C 7,0 C 1,1 km/h
18.03.2013 17:00 10,9 C 77 % 991,7 hPa 0,0 l/m 1,3 km/h W-NW 7,0 C 10,9 C 0,7 km/h
18.03.2013 18:00 5,8 C 80 % 992,1 hPa 0,0 l/m 0,0 km/h SO 2,6 C 5,8 C 0,0 km/h
18.03.2013 19:00 2,8 C 85 % 992,4 hPa 0,0 l/m 0,0 km/h S-SO 0,5 C 2,8 C 0,0 km/h
18.03.2013 20:00 2,7 C 85 % 993,0 hPa 0,0 l/m 0,0 km/h SW 0,4 C 2,7 C 0,0 km/h
18.03.2013 21:00 3,4 C 84 % 993,9 hPa 0,5 l/m 14,3 km/h O-SO 1,0 C -2,5 C 7,9 km/h
18.03.2013 22:00 3,1 C 84 % 993,9 hPa 0,0 l/m 0,0 km/h S-SO 0,7 C 3,1 C 0,0 km/h
18.03.2013 23:00 3,3 C 83 % 993,9 hPa 0,0 l/m 0,0 km/h N-NW 0,7 C 3,3 C 0,0 km/h
19.03.2013 00:00 3,5 C 86 % 994,5 hPa 0,0 l/m 24,0 km/h W-NW 1,4 C -6,6 C 13,3 km/h
19.03.2013 01:00 3,4 C 84 % 994,8 hPa 0,0 l/m 3,2 km/h N-NW 1,0 C 3,4 C 1,8 km/h
19.03.2013 02:00 3,6 C 85 % 995,6 hPa 0,0 l/m 12,3 km/h NW 1,3 C -1,0 C 6,8 km/h
19.03.2013 03:00 3,8 C 85 % 996,0 hPa 0,0 l/m 20,7 km/h NW 1,5 C -5,0 C 11,5 km/h
19.03.2013 04:00 3,5 C 86 % 996,7 hPa 0,0 l/m 29,8 km/h NW 1,4 C -8,4 C 16,6 km/h
19.03.2013 05:00 3,4 C 86 % 997,6 hPa 0,5 l/m 25,3 km/h NW 1,3 C -7,2 C 14,0 km/h
19.03.2013 06:00 3,8 C 85 % 998,2 hPa 0,0 l/m 20,1 km/h NW 1,5 C -4,8 C 11,2 km/h
19.03.2013 07:00 3,7 C 86 % 999,3 hPa 0,0 l/m 29,2 km/h W-NW 1,6 C -8,0 C 16,2 km/h
19.03.2013 08:00 4,9 C 84 % 999,8 hPa 0,0 l/m 22,7 km/h W-NW 2,4 C -4,3 C 12,6 km/h
19.03.2013 09:00 5,9 C 78 % 1000,1 hPa 0,0 l/m 21,4 km/h NW 2,4 C -2,5 C 11,9 km/h
19.03.2013 10:00 6,2 C 77 % 1001,0 hPa 0,0 l/m 20,1 km/h W-NW 2,5 C -1,7 C 11,2 km/h
19.03.2013 11:00 7,3 C 74 % 1001,4 hPa 0,0 l/m 14,3 km/h N-NW 3,0 C 2,2 C 7,9 km/h
19.03.2013 12:00 7,1 C 75 % 1001,6 hPa 0,0 l/m 25,3 km/h N-NW 3,0 C -2,2 C 14,0 km/h
19.03.2013 13:00 9,2 C 73 % 1001,4 hPa 0,0 l/m 13,0 km/h N-NW 4,6 C 5,1 C 7,2 km/h
19.03.2013 14:00 10,0 C 63 % 1000,9 hPa 0,0 l/m 29,8 km/h W-NW 3,3 C 0,7 C 16,6 km/h
19.03.2013 15:00 12,7 C 57 % 1000,6 hPa 0,0 l/m 24,0 km/h NW 4,4 C 5,7 C 13,3 km/h
19.03.2013 16:00 9,5 C 59 % 999,9 hPa 0,0 l/m 35,0 km/h W-NW 1,9 C -1,0 C 19,4 km/h
19.03.2013 17:00 9,8 C 59 % 999,7 hPa 0,0 l/m 8,4 km/h W 2,2 C 8,4 C 4,7 km/h
19.03.2013 18:00 8,1 C 62 % 1000,2 hPa 0,0 l/m 1,3 km/h W 1,3 C 8,1 C 0,7 km/h
19.03.2013 19:00 6,9 C 67 % 1000,1 hPa 0,0 l/m 1,9 km/h SO 1,2 C 6,9 C 1,1 km/h
19.03.2013 20:00 5,3 C 72 % 1000,4 hPa 0,0 l/m 0,0 km/h O-SO 0,7 C 5,3 C 0,0 km/h
19.03.2013 21:00 3,5 C 77 % 1000,6 hPa 0,0 l/m 0,0 km/h O-SO -0,1 C 3,5 C 0,0 km/h
19.03.2013 22:00 3,2 C 80 % 1000,6 hPa 0,0 l/m 0,0 km/h SO 0,1 C 3,2 C 0,0 km/h
19.03.2013 23:00 2,5 C 81 % 1000,6 hPa 0,0 l/m 0,0 km/h S -0,4 C 2,5 C 0,0 km/h
20.03.2013 00:00 3,1 C 82 % 1000,3 hPa 0,0 l/m 0,0 km/h S 0,3 C 3,1 C 0,0 km/h
20.03.2013 01:00 3,0 C 83 % 1000,1 hPa 0,0 l/m 13,0 km/h O-SO 0,4 C -2,2 C 7,2 km/h
20.03.2013 02:00 2,8 C 83 % 1000,1 hPa 0,0 l/m 0,0 km/h SO 0,2 C 2,8 C 0,0 km/h
20.03.2013 03:00 3,3 C 82 % 1000,0 hPa 0,0 l/m 0,0 km/h SO 0,5 C 3,3 C 0,0 km/h
20.03.2013 04:00 3,5 C 82 % 999,7 hPa 0,0 l/m 0,0 km/h S 0,7 C 3,5 C 0,0 km/h
20.03.2013 05:00 3,5 C 82 % 999,5 hPa 0,0 l/m 0,0 km/h S 0,7 C 3,5 C 0,0 km/h
20.03.2013 06:00 4,7 C 80 % 999,5 hPa 0,0 l/m 5,2 km/h SW 1,6 C 4,7 C 2,9 km/h
20.03.2013 07:00 6,2 C 74 % 998,9 hPa 0,0 l/m 18,1 km/h W-SW 1,9 C -0,9 C 10,1 km/h
20.03.2013 08:00 8,4 C 68 % 998,6 hPa 0,0 l/m 11,0 km/h NW 2,8 C 5,2 C 6,1 km/h
20.03.2013 09:00 9,3 C 60 % 999,5 hPa 0,0 l/m 33,0 km/h NW 1,9 C -0,9 C 18,4 km/h
20.03.2013 10:00 5,9 C 79 % 1000,7 hPa 0,5 l/m 18,1 km/h NW 2,5 C -1,2 C 10,1 km/h
20.03.2013 11:00 7,0 C 82 % 1001,9 hPa 0,0 l/m 14,3 km/h W-NW 4,1 C 1,8 C 7,9 km/h
20.03.2013 12:00 8,1 C 79 % 1002,5 hPa 0,0 l/m 30,5 km/h NW 4,7 C -2,1 C 16,9 km/h
20.03.2013 13:00 8,2 C 76 % 1003,2 hPa 0,0 l/m 29,8 km/h W-NW 4,2 C -1,8 C 16,6 km/h
20.03.2013 14:00 11,1 C 73 % 1003,8 hPa 0,0 l/m 22,7 km/h W 6,4 C 3,9 C 12,6 km/h
20.03.2013 15:00 9,9 C 67 % 1004,2 hPa 0,0 l/m 31,1 km/h NW 4,1 C 0,3 C 17,3 km/h
20.03.2013 16:00 8,8 C 67 % 1005,3 hPa 0,0 l/m 42,1 km/h NW 3,0 C -3,2 C 23,4 km/h
20.03.2013 17:00 7,9 C 73 % 1005,5 hPa 0,0 l/m 25,3 km/h N-NW 3,4 C -1,1 C 14,0 km/h
20.03.2013 18:00 7,0 C 73 % 1006,3 hPa 0,0 l/m 27,2 km/h W-NW 2,5 C -2,9 C 15,1 km/h
20.03.2013 19:00 7,3 C 73 % 1006,8 hPa 0,0 l/m 5,2 km/h N-NW 2,8 C 7,3 C 2,9 km/h
20.03.2013 20:00 4,4 C 84 % 1008,5 hPa 0,5 l/m 0,0 km/h NW 1,9 C 4,4 C 0,0 km/h
20.03.2013 21:00 5,1 C 83 % 1009,1 hPa 0,0 l/m 16,2 km/h N-NW 2,5 C -1,4 C 9,0 km/h
20.03.2013 22:00 4,9 C 82 % 1009,8 hPa 0,0 l/m 24,0 km/h N-NW 2,1 C -4,8 C 13,3 km/h
20.03.2013 23:00 4,5 C 83 % 1011,2 hPa 0,0 l/m 25,9 km/h N 1,9 C -5,9 C 14,4 km/h
21.03.2013 00:00 4,1 C 84 % 1012,4 hPa 0,0 l/m 9,7 km/h W 1,6 C 1,3 C 5,4 km/h
21.03.2013 01:00 2,9 C 85 % 1012,6 hPa 0,0 l/m 3,2 km/h SO 0,6 C 2,9 C 1,8 km/h
21.03.2013 02:00 2,1 C 85 % 1013,1 hPa 0,0 l/m 0,0 km/h SW -0,2 C 2,1 C 0,0 km/h
21.03.2013 03:00 1,9 C 85 % 1013,6 hPa 0,0 l/m 0,0 km/h SO -0,3 C 1,9 C 0,0 km/h
21.03.2013 04:00 2,1 C 84 % 1014,1 hPa 0,0 l/m 0,0 km/h SO -0,3 C 2,1 C 0,0 km/h
21.03.2013 05:00 1,8 C 84 % 1014,0 hPa 0,0 l/m 0,0 km/h S-SO -0,6 C 1,8 C 0,0 km/h
21.03.2013 06:00 0,9 C 84 % 1014,5 hPa 0,0 l/m 0,0 km/h SO -1,5 C 0,9 C 0,0 km/h
21.03.2013 07:00 1,3 C 83 % 1015,1 hPa 0,0 l/m 0,0 km/h S-SO -1,3 C 1,3 C 0,0 km/h
21.03.2013 08:00 3,9 C 81 % 1015,6 hPa 0,0 l/m 0,0 km/h N-NW 0,9 C 3,9 C 0,0 km/h
21.03.2013 09:00 7,0 C 84 % 1015,7 hPa 0,0 l/m 7,1 km/h N 4,5 C 6,4 C 4,0 km/h
21.03.2013 10:00 12,3 C 67 % 1015,5 hPa 0,0 l/m 0,0 km/h N 6,4 C 12,3 C 0,0 km/h
21.03.2013 11:00 12,0 C 58 % 1015,4 hPa 0,0 l/m 5,8 km/h N-NO 4,0 C 12,0 C 3,2 km/h
21.03.2013 12:00 12,1 C 59 % 1015,2 hPa 0,0 l/m 0,0 km/h NO 4,3 C 12,1 C 0,0 km/h
21.03.2013 13:00 12,7 C 53 % 1015,1 hPa 0,0 l/m 0,0 km/h NO 3,4 C 12,7 C 0,0 km/h
21.03.2013 14:00 12,6 C 49 % 1014,6 hPa 0,0 l/m 0,0 km/h N 2,2 C 12,6 C 0,0 km/h
21.03.2013 15:00 13,1 C 49 % 1014,5 hPa 0,0 l/m 5,8 km/h SO 2,6 C 13,1 C 3,2 km/h
21.03.2013 16:00 13,4 C 45 % 1014,0 hPa 0,0 l/m 0,0 km/h SW 1,7 C 13,4 C 0,0 km/h
21.03.2013 17:00 11,9 C 47 % 1013,6 hPa 0,0 l/m 0,0 km/h SW 1,0 C 11,9 C 0,0 km/h
21.03.2013 18:00 8,1 C 54 % 1013,9 hPa 0,0 l/m 0,0 km/h S -0,6 C 8,1 C 0,0 km/h
21.03.2013 19:00 4,8 C 69 % 1014,0 hPa 0,0 l/m 0,0 km/h S-SO -0,4 C 4,8 C 0,0 km/h
21.03.2013 20:00 3,8 C 75 % 1014,0 hPa 0,0 l/m 0,0 km/h S -0,2 C 3,8 C 0,0 km/h
21.03.2013 21:00 2,9 C 78 % 1014,2 hPa 0,0 l/m 0,0 km/h S-SW -0,5 C 2,9 C 0,0 km/h
21.03.2013 22:00 1,9 C 82 % 1014,0 hPa 0,0 l/m 4,5 km/h S-SW -0,8 C 1,9 C 2,5 km/h
21.03.2013 23:00 2,9 C 82 % 1013,8 hPa 0,0 l/m 3,9 km/h S 0,1 C 2,9 C 2,2 km/h
22.03.2013 00:00 3,0 C 81 % 1013,7 hPa 0,0 l/m 0,0 km/h S 0,1 C 3,0 C 0,0 km/h
22.03.2013 01:00 1,8 C 82 % 1013,6 hPa 0,0 l/m 0,0 km/h N-NO -0,9 C 1,8 C 0,0 km/h
22.03.2013 02:00 0,4 C 84 % 1013,3 hPa 0,0 l/m 0,0 km/h N-NO -2,0 C 0,4 C 0,0 km/h
22.03.2013 03:00 -0,9 C 84 % 1013,1 hPa 0,0 l/m 0,0 km/h N-NO -3,3 C -0,9 C 0,0 km/h
22.03.2013 04:00 -1,9 C 85 % 1012,8 hPa 0,0 l/m 0,0 km/h NO -4,1 C -1,9 C 0,0 km/h
22.03.2013 05:00 -2,2 C 86 % 1012,6 hPa 0,0 l/m 0,0 km/h O-NO -4,2 C -2,2 C 0,0 km/h
22.03.2013 06:00 -2,7 C 86 % 1012,7 hPa 0,0 l/m 0,0 km/h O-NO -4,7 C -2,7 C 0,0 km/h
22.03.2013 07:00 -1,0 C 85 % 1012,5 hPa 0,0 l/m 0,0 km/h NO -3,2 C -1,0 C 0,0 km/h
22.03.2013 08:00 0,5 C 84 % 1011,9 hPa 0,0 l/m 0,0 km/h N -1,9 C 0,5 C 0,0 km/h
22.03.2013 09:00 1,8 C 86 % 1011,5 hPa 0,0 l/m 3,9 km/h W-NW -0,3 C 1,8 C 2,2 km/h
22.03.2013 10:00 2,6 C 85 % 1011,0 hPa 0,0 l/m 1,3 km/h W-NW 0,3 C 2,6 C 0,7 km/h
22.03.2013 11:00 4,9 C 81 % 1010,4 hPa 0,0 l/m 0,0 km/h W 1,9 C 4,9 C 0,0 km/h
22.03.2013 12:00 9,2 C 75 % 1009,8 hPa 0,0 l/m 0,0 km/h NO 5,0 C 9,2 C 0,0 km/h
22.03.2013 13:00 11,5 C 66 % 1008,6 hPa 0,0 l/m 0,0 km/h W-SW 5,4 C 11,5 C 0,0 km/h
22.03.2013 14:00 14,9 C 59 % 1007,5 hPa 0,0 l/m 11,7 km/h NW 7,0 C 12,3 C 6,5 km/h
22.03.2013 15:00 17,8 C 49 % 1006,8 hPa 0,0 l/m 7,8 km/h N-NW 6,9 C 17,1 C 4,3 km/h
22.03.2013 16:00 19,4 C 43 % 1006,0 hPa 0,0 l/m 9,1 km/h N 6,5 C 18,3 C 5,0 km/h
22.03.2013 17:00 13,9 C 52 % 1005,5 hPa 0,0 l/m 1,9 km/h W 4,2 C 13,9 C 1,1 km/h
22.03.2013 18:00 10,4 C 64 % 1005,7 hPa 0,0 l/m 0,0 km/h O-SO 3,9 C 10,4 C 0,0 km/h
22.03.2013 19:00 8,3 C 71 % 1005,7 hPa 0,0 l/m 0,0 km/h O 3,4 C 8,3 C 0,0 km/h
22.03.2013 20:00 7,8 C 71 % 1005,8 hPa 0,0 l/m 0,0 km/h S 2,9 C 7,8 C 0,0 km/h
22.03.2013 21:00 7,0 C 72 % 1005,8 hPa 0,0 l/m 0,0 km/h S 2,3 C 7,0 C 0,0 km/h
22.03.2013 22:00 6,9 C 69 % 1005,7 hPa 0,0 l/m 0,0 km/h S-SW 1,6 C 6,9 C 0,0 km/h
22.03.2013 23:00 6,1 C 70 % 1005,6 hPa 0,0 l/m 0,0 km/h S-SW 1,0 C 6,1 C 0,0 km/h
23.03.2013 00:00 4,6 C 74 % 1005,8 hPa 0,0 l/m 0,0 km/h S-SW 0,4 C 4,6 C 0,0 km/h
23.03.2013 01:00 4,5 C 73 % 1006,0 hPa 0,0 l/m 0,0 km/h N-NW 0,1 C 4,5 C 0,0 km/h
23.03.2013 02:00 3,5 C 78 % 1006,2 hPa 0,0 l/m 0,0 km/h NW 0,0 C 3,5 C 0,0 km/h
23.03.2013 03:00 1,4 C 81 % 1006,5 hPa 0,0 l/m 0,0 km/h N-NO -1,5 C 1,4 C 0,0 km/h
23.03.2013 04:00 0,1 C 82 % 1006,7 hPa 0,0 l/m 0,0 km/h N-NO -2,6 C 0,1 C 0,0 km/h
23.03.2013 05:00 -0,7 C 84 % 1006,9 hPa 0,0 l/m 0,0 km/h W -3,1 C -0,7 C 0,0 km/h
23.03.2013 06:00 -0,9 C 85 % 1007,1 hPa 0,0 l/m 0,0 km/h NW -3,1 C -0,9 C 0,0 km/h
23.03.2013 07:00 0,5 C 85 % 1007,6 hPa 0,0 l/m 0,0 km/h N -1,7 C 0,5 C 0,0 km/h
23.03.2013 08:00 1,0 C 84 % 1007,8 hPa 0,0 l/m 0,0 km/h N -1,4 C 1,0 C 0,0 km/h
23.03.2013 09:00 1,0 C 84 % 1008,4 hPa 0,0 l/m 1,9 km/h SO -1,4 C 1,0 C 1,1 km/h
23.03.2013 10:00 3,4 C 82 % 1008,2 hPa 0,0 l/m 0,0 km/h N 0,6 C 3,4 C 0,0 km/h
23.03.2013 11:00 3,3 C 82 % 1008,2 hPa 0,5 l/m 1,9 km/h NO 0,5 C 3,3 C 1,1 km/h
23.03.2013 12:00 2,8 C 84 % 1008,2 hPa 0,5 l/m 1,3 km/h N-NO 0,4 C 2,8 C 0,7 km/h
23.03.2013 13:00 4,3 C 83 % 1007,9 hPa 0,0 l/m 11,0 km/h NO 1,7 C 0,6 C 6,1 km/h
23.03.2013 14:00 3,9 C 83 % 1007,6 hPa 0,0 l/m 0,0 km/h N 1,3 C 3,9 C 0,0 km/h
23.03.2013 15:00 4,4 C 84 % 1007,4 hPa 0,0 l/m 4,5 km/h N 1,9 C 4,4 C 2,5 km/h
23.03.2013 16:00 3,8 C 85 % 1007,4 hPa 0,0 l/m 0,0 km/h N-NO 1,5 C 3,8 C 0,0 km/h
23.03.2013 17:00 3,8 C 85 % 1006,9 hPa 0,0 l/m 0,0 km/h N 1,5 C 3,8 C 0,0 km/h
23.03.2013 18:00 3,5 C 85 % 1007,0 hPa 0,0 l/m 0,0 km/h N 1,2 C 3,5 C 0,0 km/h
23.03.2013 19:00 3,2 C 85 % 1007,3 hPa 0,0 l/m 0,0 km/h N 0,9 C 3,2 C 0,0 km/h
23.03.2013 20:00 3,0 C 85 % 1007,4 hPa 0,0 l/m 0,0 km/h N 0,7 C 3,0 C 0,0 km/h
23.03.2013 21:00 3,1 C 85 % 1007,2 hPa 0,0 l/m 0,0 km/h N 0,8 C 3,1 C 0,0 km/h
23.03.2013 22:00 3,1 C 84 % 1007,1 hPa 0,0 l/m 0,0 km/h N 0,7 C 3,1 C 0,0 km/h
23.03.2013 23:00 3,1 C 84 % 1006,8 hPa 0,0 l/m 0,0 km/h N-NW 0,7 C 3,1 C 0,0 km/h
24.03.2013 00:00 2,9 C 84 % 1007,0 hPa 0,0 l/m 0,0 km/h N-NW 0,5 C 2,9 C 0,0 km/h
24.03.2013 01:00 2,6 C 84 % 1006,3 hPa 0,0 l/m 0,0 km/h N-NW 0,2 C 2,6 C 0,0 km/h
24.03.2013 02:00 2,4 C 84 % 1005,8 hPa 0,0 l/m 0,0 km/h N -0,0 C 2,4 C 0,0 km/h
24.03.2013 03:00 2,1 C 83 % 1005,8 hPa 0,0 l/m 0,0 km/h W-NW -0,5 C 2,1 C 0,0 km/h
24.03.2013 04:00 1,3 C 83 % 1005,9 hPa 0,0 l/m 0,0 km/h W-NW -1,3 C 1,3 C 0,0 km/h
24.03.2013 05:00 0,8 C 83 % 1005,5 hPa 0,0 l/m 0,0 km/h W-NW -1,8 C 0,8 C 0,0 km/h
24.03.2013 06:00 -0,4 C 84 % 1005,4 hPa 0,0 l/m 0,0 km/h SW -2,8 C -0,4 C 0,0 km/h
24.03.2013 07:00 -0,2 C 83 % 1005,8 hPa 0,0 l/m 0,0 km/h N-NW -2,7 C -0,2 C 0,0 km/h
24.03.2013 08:00 3,4 C 67 % 1005,3 hPa 0,0 l/m 0,0 km/h NO -2,1 C 3,4 C 0,0 km/h
24.03.2013 09:00 6,4 C 80 % 1005,3 hPa 0,0 l/m 0,0 km/h N 3,2 C 6,4 C 0,0 km/h
24.03.2013 10:00 7,3 C 72 % 1005,3 hPa 0,0 l/m 5,2 km/h N-NW 2,6 C 7,3 C 2,9 km/h
24.03.2013 11:00 10,8 C 61 % 1004,9 hPa 0,0 l/m 0,0 km/h O-SO 3,6 C 10,8 C 0,0 km/h
24.03.2013 12:00 9,8 C 64 % 1004,2 hPa 0,0 l/m 0,0 km/h O-SO 3,3 C 9,8 C 0,0 km/h
24.03.2013 13:00 9,6 C 61 % 1004,2 hPa 0,0 l/m 2,6 km/h S-SO 2,5 C 9,6 C 1,4 km/h
24.03.2013 14:00 10,4 C 56 % 1003,9 hPa 0,0 l/m 0,0 km/h SO 2,0 C 10,4 C 0,0 km/h
24.03.2013 15:00 8,6 C 60 % 1003,5 hPa 0,0 l/m 0,0 km/h O 1,3 C 8,6 C 0,0 km/h
24.03.2013 16:00 8,6 C 62 % 1003,4 hPa 0,0 l/m 0,0 km/h O-SO 1,7 C 8,6 C 0,0 km/h
24.03.2013 17:00 7,3 C 62 % 1003,5 hPa 0,0 l/m 0,0 km/h O-SO 0,5 C 7,3 C 0,0 km/h
24.03.2013 18:00 5,8 C 66 % 1003,8 hPa 0,0 l/m 1,9 km/h S-SO -0,0 C 5,8 C 1,1 km/h
24.03.2013 19:00 4,2 C 73 % 1004,6 hPa 0,0 l/m 0,0 km/h O -0,2 C 4,2 C 0,0 km/h
24.03.2013 20:00 3,3 C 77 % 1005,4 hPa 0,5 l/m 0,0 km/h O-SO -0,3 C 3,3 C 0,0 km/h
24.03.2013 21:00 2,5 C 81 % 1005,4 hPa 0,5 l/m 0,0 km/h S -0,4 C 2,5 C 0,0 km/h
24.03.2013 22:00 1,9 C 83 % 1005,2 hPa 0,5 l/m 0,0 km/h S-SO -0,7 C 1,9 C 0,0 km/h
24.03.2013 23:00 1,8 C 84 % 1005,1 hPa 0,0 l/m 0,0 km/h S -0,6 C 1,8 C 0,0 km/h
Min-Datum _ 22.03.13 22.03.13 18.03.13 - 18.03.13 - 22.03.13 19.03.13 18.03.13
_ Min-Zeit 06:19 16:19 16:19 - 00:19 - 06:19 04:19 00:19
Minimum _ -2,7 C 43 % 991,4 hPa - 0,0 km/h - -4,7 C -8,4 C 0,0 km/h
Max-Datum _ 22.03.13 19.03.13 21.03.13 18.03.13 20.03.13 - 18.03.13 22.03.13 20.03.13
_ Max-Zeit 16:19 00:19 09:19 01:19 16:19 - 17:19 16:19 16:19
Maximum _ 19,4 C 86 % 1015,7 hPa 1,6 l/m 42,1 km/h
NW
- 7,0 C 18,3 C 23,4 km/h
NW
Durchschnitt _ 5,2 C 77 % 1004,6 hPa #10,9 l/m 5,5 km/h N 1,3 C 3,4 C 3,0 km/h
www.sexauwetter.de